Time;durP1;ratioP1;P1;durP2;ratioP2;P2;SDS_P1;SDS_P2;PMS_P1;PMS_P2;Temp;Humidity;BMP_temperature;BMP_pressure;BME280_temperature;BME280_humidity;BME280_pressure;Samples;Min_cycle;Max_cycle;Signal;HPM_P1;HPM_P2
2022/01/15 00:01:32;;;;;;;;;;;;;;;;;;5010279;28;19920;-57
2022/01/15 00:03:58;;;;;;;;;;;;;;;;;;5014021;28;19928;-58
2022/01/15 00:06:23;;;;;;;;;;;;;;;;;;5011498;28;19941;-57
2022/01/15 00:08:49;;;;;;;;;;;;;;;;;;5009544;28;19933;-58
2022/01/15 00:11:14;;;;;;;;;;;;;;;;;;5010826;28;19921;-58
2022/01/15 00:13:42;;;;;;;;;;;;;;;;;;5010207;28;19952;-57
2022/01/15 00:16:24;;;;;;;;;;;;;;;;;;5011412;28;19925;-57
2022/01/15 00:19:04;;;;;;;;;;;;;;;;;;5010181;28;19940;-56
2022/01/15 00:21:30;;;;;;;;;;;;;;;;;;5011959;28;19967;-55
2022/01/15 00:23:55;;;;;;;;;;;;;;;;;;5013312;28;20036;-57
2022/01/15 00:26:21;;;;;;;;;;;;;;;;;;5010227;28;20396;-57
2022/01/15 00:28:46;;;;;;;;;;;;;;;;;;5010971;28;19932;-57
2022/01/15 00:31:11;;;;;;;;;;;;;;;;;;5011239;28;19928;-57
2022/01/15 00:33:37;;;;;;;;;;;;;;;;;;5010650;28;19936;-57
2022/01/15 00:36:02;;;;;;;;;;;;;;;;;;5011251;28;19926;-57
2022/01/15 00:38:28;;;;;;;;;;;;;;;;;;5008988;28;19921;-56
2022/01/15 00:40:53;;;;;;;;;;;;;;;;;;5011125;28;19979;-57
2022/01/15 00:43:18;;;;;;;;;;;;;;;;;;5010387;28;20464;-57
2022/01/15 00:45:44;;;;;;;;;;;;;;;;;;5010253;28;19936;-57
2022/01/15 00:48:09;;;;;;;;;;;;;;;;;;5010628;28;19925;-55
2022/01/15 00:50:34;;;;;;;;;;;;;;;;;;5009124;28;20066;-58
2022/01/15 00:53:00;;;;;;;;;;;;;;;;;;5010097;28;20508;-54
2022/01/15 00:55:25;;;;;;;;;;;;;;;;;;5007999;28;19921;-54
2022/01/15 00:57:51;;;;;;;;;;;;;;;;;;5010546;28;20012;-56
2022/01/15 01:00:17;;;;;;;;;;;;;;;;;;5011267;28;20015;-58
2022/01/15 01:02:43;;;;;;;;;;;;;;;;;;5008349;28;19963;-57
2022/01/15 01:05:08;;;;;;;;;;;;;;;;;;5008669;28;19929;-58
2022/01/15 01:07:34;;;;;;;;;;;;;;;;;;5008357;28;19932;-57
2022/01/15 01:23:16;;;;;;;;;;;;;;;;;;5010768;28;19920;-57
2022/01/15 01:25:45;;;;;;;;;;;;;;;;;;5008523;28;20012;-54
2022/01/15 01:28:19;;;;;;;;;;;;;;;;;;5008383;28;19917;-56
2022/01/15 01:30:54;;;;;;;;;;;;;;;;;;5009476;28;19926;-57
2022/01/15 01:36:01;;;;;;;;;;;;;;;;;;5011293;28;19925;-56
2022/01/15 01:38:32;;;;;;;;;;;;;;;;;;5010203;28;19925;-57
2022/01/15 01:41:00;;;;;;;;;;;;;;;;;;5010413;28;19921;-55
2022/01/15 01:43:41;;;;;;;;;;;;;;;;;;5009381;28;19928;-56
2022/01/15 01:46:29;;;;;;;;;;;;;;;;;;5012249;28;20528;-56
2022/01/15 01:48:54;;;;;;;;;;;;;;;;;;5015904;28;19936;-58
2022/01/15 01:51:21;;;;;;;;;;;;;;;;;;5016195;28;19988;-58
2022/01/15 01:53:47;;;;;;;;;;;;;;;;;;5016421;28;20016;-57
2022/01/15 01:56:12;;;;;;;;;;;;;;;;;;5015727;28;19940;-57
2022/01/15 01:58:37;;;;;;;;;;;;;;;;;;5015744;28;20063;-54
2022/01/15 02:01:03;;;;;;;;;;;;;;;;;;5016060;28;20626;-58
2022/01/15 02:03:28;;;;;;;;;;;;;;;;;;5015722;28;19921;-56
2022/01/15 02:05:53;;;;;;;;;;;;;;;;;;5014814;28;20020;-56
2022/01/15 02:08:19;;;;;;;;;;;;;;;;;;5015246;28;19921;-58
2022/01/15 02:10:44;;;;;;;;;;;;;;;;;;5015422;28;19922;-56
2022/01/15 02:13:10;;;;;;;;;;;;;;;;;;5018100;28;19925;-56
2022/01/15 02:15:38;;;;;;;;;;;;;;;;;;5014569;28;20583;-56
2022/01/15 02:18:04;;;;;;;;;;;;;;;;;;5016433;28;19941;-55
2022/01/15 02:25:38;;;;;;;;;;;;;;;;;;5013322;28;20543;-57
2022/01/15 02:28:04;;;;;;;;;;;;;;;;;;5016968;28;20011;-57
2022/01/15 02:30:29;;;;;;;;;;;;;;;;;;5014605;28;19929;-56
2022/01/15 02:32:55;;;;;;;;;;;;;;;;;;5005277;28;19921;-56
2022/01/15 02:35:20;;;;;;;;;;;;;;;;;;5014091;28;20020;-56
2022/01/15 02:37:45;;;;;;;;;;;;;;;;;;5016188;28;19921;-55
2022/01/15 02:40:11;;;;;;;;;;;;;;;;;;5015277;28;20007;-55
2022/01/15 02:42:36;;;;;;;;;;;;;;;;;;5015210;28;19925;-56
2022/01/15 02:45:04;;;;;;;;;;;;;;;;;;5015030;28;20339;-57
2022/01/15 02:50:13;;;;;;;;;;;;;;;;;;5015710;28;20318;-55
2022/01/15 02:52:39;;;;;;;;;;;;;;;;;;5014370;28;19926;-56
2022/01/15 02:55:04;;;;;;;;;;;;;;;;;;5014366;28;19926;-54
2022/01/15 02:57:30;;;;;;;;;;;;;;;;;;5013434;28;20032;-56
2022/01/15 02:59:55;;;;;;;;;;;;;;;;;;5012486;28;19917;-55
2022/01/15 03:02:21;;;;;;;;;;;;;;;;;;5011978;28;20376;-57
2022/01/15 03:04:46;;;;;;;;;;;;;;;;;;5011476;28;19940;-56
2022/01/15 03:07:11;;;;;;;;;;;;;;;;;;5013345;28;19921;-55
2022/01/15 03:09:40;;;;;;;;;;;;;;;;;;5013740;28;20499;-57
2022/01/15 03:12:06;;;;;;;;;;;;;;;;;;5015004;28;19928;-56
2022/01/15 03:14:31;;;;;;;;;;;;;;;;;;5016115;28;20430;-57
2022/01/15 03:16:57;;;;;;;;;;;;;;;;;;5013603;28;19971;-57
2022/01/15 03:19:22;;;;;;;;;;;;;;;;;;5012878;28;19964;-58
2022/01/15 03:24:18;;;;;;;;;;;;;;;;;;4918039;27;19979;-55
2022/01/15 03:26:43;;;;;;;;;;;;;;;;;;4948939;28;20398;-56
2022/01/15 03:29:09;;;;;;;;;;;;;;;;;;5016294;28;19921;-54
2022/01/15 03:31:34;;;;;;;;;;;;;;;;;;5023345;28;19986;-56
2022/01/15 03:34:00;;;;;;;;;;;;;;;;;;5008590;28;20323;-57
2022/01/15 03:36:25;;;;;;;;;;;;;;;;;;5039973;28;20602;-58
2022/01/15 03:38:50;;;;;;;;;;;;;;;;;;5034082;28;19925;-56
2022/01/15 03:41:16;;;;;;;;;;;;;;;;;;5034880;28;19921;-58
2022/01/15 03:43:41;;;;;;;;;;;;;;;;;;5034308;28;19937;-56
2022/01/15 03:46:07;;;;;;;;;;;;;;;;;;5034089;28;19925;-56
2022/01/15 03:48:32;;;;;;;;;;;;;;;;;;5034444;28;19980;-56
2022/01/15 03:50:57;;;;;;;;;;;;;;;;;;5037242;28;19925;-56
2022/01/15 03:53:23;;;;;;;;;;;;;;;;;;5037759;28;19921;-56
2022/01/15 03:55:48;;;;;;;;;;;;;;;;;;5044522;28;19925;-56
2022/01/15 03:58:14;;;;;;;;;;;;;;;;;;5036468;28;19921;-55
2022/01/15 04:00:39;;;;;;;;;;;;;;;;;;5036863;28;19995;-57
2022/01/15 04:03:04;;;;;;;;;;;;;;;;;;5034763;28;19933;-55
2022/01/15 04:05:30;;;;;;;;;;;;;;;;;;5033155;28;20481;-56
2022/01/15 04:07:55;;;;;;;;;;;;;;;;;;5035642;28;20320;-54
2022/01/15 04:10:21;;;;;;;;;;;;;;;;;;5033941;28;19948;-55
2022/01/15 04:12:46;;;;;;;;;;;;;;;;;;5035148;28;19925;-56
2022/01/15 04:15:16;;;;;;;;;;;;;;;;;;5030866;28;20248;-55
2022/01/15 04:17:41;;;;;;;;;;;;;;;;;;5033151;28;20370;-56
2022/01/15 04:20:07;;;;;;;;;;;;;;;;;;5033247;28;20410;-55
2022/01/15 04:22:32;;;;;;;;;;;;;;;;;;5032815;28;19933;-56
2022/01/15 04:24:58;;;;;;;;;;;;;;;;;;5040834;28;19921;-56
2022/01/15 04:27:23;;;;;;;;;;;;;;;;;;5033796;28;19917;-56
2022/01/15 04:29:49;;;;;;;;;;;;;;;;;;5033719;28;20008;-57
2022/01/15 04:32:14;;;;;;;;;;;;;;;;;;5034008;28;19932;-57
2022/01/15 04:34:40;;;;;;;;;;;;;;;;;;5024006;28;19921;-56
2022/01/15 04:37:16;;;;;;;;;;;;;;;;;;5019927;28;19929;-56
2022/01/15 04:39:42;;;;;;;;;;;;;;;;;;5019682;28;20421;-56
2022/01/15 04:42:07;;;;;;;;;;;;;;;;;;5019748;28;20008;-56
2022/01/15 04:44:32;;;;;;;;;;;;;;;;;;5018933;28;19971;-55
2022/01/15 04:46:59;;;;;;;;;;;;;;;;;;5019706;28;19921;-56
2022/01/15 04:49:24;;;;;;;;;;;;;;;;;;5019811;28;20066;-56
2022/01/15 04:51:49;;;;;;;;;;;;;;;;;;5020525;28;20453;-56
2022/01/15 04:54:15;;;;;;;;;;;;;;;;;;5018956;28;19925;-57
2022/01/15 04:56:40;;;;;;;;;;;;;;;;;;5019068;28;19932;-56
2022/01/15 04:59:06;;;;;;;;;;;;;;;;;;5019163;28;19965;-53
2022/01/15 05:01:31;;;;;;;;;;;;;;;;;;5018535;28;20296;-56
2022/01/15 05:03:56;;;;;;;;;;;;;;;;;;5018863;28;19980;-56
2022/01/15 05:06:22;;;;;;;;;;;;;;;;;;5017956;28;20878;-59
2022/01/15 05:08:51;;;;;;;;;;;;;;;;;;5018702;28;19925;-56
2022/01/15 05:11:30;;;;;;;;;;;;;;;;;;5020076;28;19992;-56
2022/01/15 05:13:56;;;;;;;;;;;;;;;;;;5012557;28;19926;-56
2022/01/15 05:16:21;;;;;;;;;;;;;;;;;;5018199;28;19928;-56
2022/01/15 05:18:47;;;;;;;;;;;;;;;;;;5019241;28;19970;-56
2022/01/15 05:21:12;;;;;;;;;;;;;;;;;;5020299;28;20386;-57
2022/01/15 05:23:37;;;;;;;;;;;;;;;;;;5018211;28;20014;-58
2022/01/15 05:26:03;;;;;;;;;;;;;;;;;;5019570;28;19968;-57
2022/01/15 05:28:28;;;;;;;;;;;;;;;;;;5018340;28;19921;-53
2022/01/15 05:30:54;;;;;;;;;;;;;;;;;;5019436;28;20406;-57
2022/01/15 05:33:19;;;;;;;;;;;;;;;;;;5018590;28;19921;-56
2022/01/15 05:35:44;;;;;;;;;;;;;;;;;;5019014;28;20058;-55
2022/01/15 05:38:10;;;;;;;;;;;;;;;;;;5019872;28;19936;-55
2022/01/15 05:40:35;;;;;;;;;;;;;;;;;;5018280;28;19932;-54
2022/01/15 05:43:01;;;;;;;;;;;;;;;;;;5019774;28;19961;-55
2022/01/15 05:45:28;;;;;;;;;;;;;;;;;;5016891;28;19932;-56
2022/01/15 05:47:53;;;;;;;;;;;;;;;;;;5018721;28;19971;-54
2022/01/15 05:50:19;;;;;;;;;;;;;;;;;;5020535;28;19921;-57
2022/01/15 05:52:44;;;;;;;;;;;;;;;;;;5020409;28;20271;-56
2022/01/15 05:55:10;;;;;;;;;;;;;;;;;;5019608;28;20397;-56
2022/01/15 05:57:35;;;;;;;;;;;;;;;;;;5018377;28;20421;-57
2022/01/15 06:00:00;;;;;;;;;;;;;;;;;;5019091;28;19932;-55
2022/01/15 06:02:26;;;;;;;;;;;;;;;;;;5017484;28;19929;-57
2022/01/15 06:04:51;;;;;;;;;;;;;;;;;;5018423;28;19928;-56
2022/01/15 06:07:17;;;;;;;;;;;;;;;;;;5018688;28;19925;-56
2022/01/15 06:09:42;;;;;;;;;;;;;;;;;;5018555;28;20364;-56
2022/01/15 06:12:09;;;;;;;;;;;;;;;;;;5018211;28;19933;-54
2022/01/15 06:14:37;;;;;;;;;;;;;;;;;;5017710;28;19921;-57
2022/01/15 06:17:08;;;;;;;;;;;;;;;;;;5018840;28;19921;-57
2022/01/15 06:19:33;;;;;;;;;;;;;;;;;;5017368;28;19928;-56
2022/01/15 06:21:59;;;;;;;;;;;;;;;;;;5019679;28;20247;-57
2022/01/15 06:24:24;;;;;;;;;;;;;;;;;;5016840;28;19927;-54
2022/01/15 06:26:50;;;;;;;;;;;;;;;;;;5015020;28;19925;-57
2022/01/15 06:29:15;;;;;;;;;;;;;;;;;;5016143;28;20781;-57
2022/01/15 06:31:40;;;;;;;;;;;;;;;;;;5017822;28;19927;-57
2022/01/15 06:34:06;;;;;;;;;;;;;;;;;;5017423;28;19925;-59
2022/01/15 06:36:31;;;;;;;;;;;;;;;;;;5014685;28;19960;-58
2022/01/15 06:38:56;;;;;;;;;;;;;;;;;;5017557;28;19932;-58
2022/01/15 06:41:22;;;;;;;;;;;;;;;;;;5017855;28;19917;-57
2022/01/15 06:43:47;;;;;;;;;;;;;;;;;;5017683;28;20578;-58
2022/01/15 06:46:13;;;;;;;;;;;;;;;;;;5017957;28;19944;-57
2022/01/15 06:48:38;;;;;;;;;;;;;;;;;;5016864;28;19969;-58
2022/01/15 06:51:04;;;;;;;;;;;;;;;;;;5017732;28;19925;-58
2022/01/15 06:53:29;;;;;;;;;;;;;;;;;;5009896;28;20004;-58
2022/01/15 06:55:54;;;;;;;;;;;;;;;;;;5017224;28;19968;-58
2022/01/15 06:58:20;;;;;;;;;;;;;;;;;;5017083;28;19928;-57
2022/01/15 07:00:45;;;;;;;;;;;;;;;;;;5017724;28;20345;-57
2022/01/15 07:03:11;;;;;;;;;;;;;;;;;;5018020;28;19932;-58
2022/01/15 07:05:36;;;;;;;;;;;;;;;;;;5015874;28;20544;-55
2022/01/15 07:08:02;;;;;;;;;;;;;;;;;;5017580;28;20569;-58
2022/01/15 07:10:27;;;;;;;;;;;;;;;;;;5016728;28;19930;-57
2022/01/15 07:12:53;;;;;;;;;;;;;;;;;;5017577;28;19925;-58
2022/01/15 07:15:18;;;;;;;;;;;;;;;;;;5015939;28;19921;-57
2022/01/15 07:17:44;;;;;;;;;;;;;;;;;;5018851;28;19926;-55
2022/01/15 07:20:09;;;;;;;;;;;;;;;;;;5019309;28;19928;-58
2022/01/15 07:22:34;;;;;;;;;;;;;;;;;;5018433;28;19933;-56
2022/01/15 07:25:00;;;;;;;;;;;;;;;;;;5018575;28;19936;-57
2022/01/15 07:27:25;;;;;;;;;;;;;;;;;;5019592;28;21563;-56
2022/01/15 07:29:51;;;;;;;;;;;;;;;;;;5019918;28;20389;-56
2022/01/15 07:32:16;;;;;;;;;;;;;;;;;;5018761;28;19988;-55
2022/01/15 07:34:41;;;;;;;;;;;;;;;;;;5016975;28;19931;-55
2022/01/15 07:37:07;;;;;;;;;;;;;;;;;;5017201;28;20309;-56
2022/01/15 07:39:35;;;;;;;;;;;;;;;;;;5016142;28;19925;-56
2022/01/15 07:42:00;;;;;;;;;;;;;;;;;;5017411;28;19932;-56
2022/01/15 07:44:25;;;;;;;;;;;;;;;;;;5015781;28;19921;-56
2022/01/15 07:46:51;;;;;;;;;;;;;;;;;;5016464;28;19930;-57
2022/01/15 07:49:16;;;;;;;;;;;;;;;;;;5024776;28;19921;-56
2022/01/15 07:51:42;;;;;;;;;;;;;;;;;;5016368;28;19929;-56
2022/01/15 07:54:07;;;;;;;;;;;;;;;;;;5015888;28;20432;-56
2022/01/15 07:56:32;;;;;;;;;;;;;;;;;;5016289;28;20397;-54
2022/01/15 07:58:58;;;;;;;;;;;;;;;;;;5016997;28;19936;-56
2022/01/15 08:01:23;;;;;;;;;;;;;;;;;;5018064;28;20023;-55
2022/01/15 08:03:49;;;;;;;;;;;;;;;;;;5017724;28;19933;-57
2022/01/15 08:06:14;;;;;;;;;;;;;;;;;;5016768;28;19928;-56
2022/01/15 08:08:39;;;;;;;;;;;;;;;;;;5016435;28;19996;-56
2022/01/15 08:11:05;;;;;;;;;;;;;;;;;;5023167;28;20371;-56
2022/01/15 08:13:31;;;;;;;;;;;;;;;;;;5021115;28;19929;-56
2022/01/15 08:15:57;;;;;;;;;;;;;;;;;;5021807;28;20401;-57
2022/01/15 08:18:23;;;;;;;;;;;;;;;;;;5020878;28;19925;-56
2022/01/15 08:20:48;;;;;;;;;;;;;;;;;;5022665;28;19921;-57
2022/01/15 08:23:14;;;;;;;;;;;;;;;;;;5022979;28;19933;-56
2022/01/15 08:25:39;;;;;;;;;;;;;;;;;;5022590;28;19968;-57
2022/01/15 08:28:04;;;;;;;;;;;;;;;;;;5022553;28;19925;-56
2022/01/15 08:30:30;;;;;;;;;;;;;;;;;;5021351;28;19932;-55
2022/01/15 08:32:55;;;;;;;;;;;;;;;;;;5015133;28;19980;-57
2022/01/15 08:35:21;;;;;;;;;;;;;;;;;;5021324;28;19925;-57
2022/01/15 08:37:46;;;;;;;;;;;;;;;;;;5021268;28;19996;-55
2022/01/15 08:40:11;;;;;;;;;;;;;;;;;;5020174;28;19924;-56
2022/01/15 08:42:37;;;;;;;;;;;;;;;;;;5019874;28;19939;-56
2022/01/15 08:45:03;;;;;;;;;;;;;;;;;;5020109;28;19921;-56
2022/01/15 08:47:28;;;;;;;;;;;;;;;;;;5019697;28;19957;-56
2022/01/15 08:49:55;;;;;;;;;;;;;;;;;;5020935;28;20070;-56
2022/01/15 08:52:21;;;;;;;;;;;;;;;;;;5019437;28;19936;-57
2022/01/15 08:54:46;;;;;;;;;;;;;;;;;;5020750;28;20124;-57
2022/01/15 08:57:11;;;;;;;;;;;;;;;;;;5021576;28;19918;-56
2022/01/15 08:59:37;;;;;;;;;;;;;;;;;;5017233;28;19932;-57
2022/01/15 09:02:02;;;;;;;;;;;;;;;;;;5020484;28;19967;-57
2022/01/15 09:04:28;;;;;;;;;;;;;;;;;;5020767;28;19925;-57
2022/01/15 09:06:54;;;;;;;;;;;;;;;;;;5020743;28;19989;-57
2022/01/15 09:09:19;;;;;;;;;;;;;;;;;;5019776;28;19925;-57
2022/01/15 09:11:45;;;;;;;;;;;;;;;;;;5020426;28;19983;-57
2022/01/15 09:14:11;;;;;;;;;;;;;;;;;;5020190;28;19925;-57
2022/01/15 09:16:36;;;;;;;;;;;;;;;;;;5019935;28;19967;-57
2022/01/15 09:19:02;;;;;;;;;;;;;;;;;;5020071;28;19925;-57
2022/01/15 09:21:27;;;;;;;;;;;;;;;;;;5018715;28;19980;-55
2022/01/15 09:23:53;;;;;;;;;;;;;;;;;;5019520;28;20966;-58
2022/01/15 09:26:22;;;;;;;;;;;;;;;;;;5019748;28;19928;-57
2022/01/15 09:31:31;;;;;;;;;;;;;;;;;;5019490;28;20022;-56
2022/01/15 09:33:56;;;;;;;;;;;;;;;;;;5019237;28;20016;-54
2022/01/15 09:36:22;;;;;;;;;;;;;;;;;;5028782;28;19921;-57
2022/01/15 09:38:47;;;;;;;;;;;;;;;;;;5021354;28;19975;-57
2022/01/15 09:41:13;;;;;;;;;;;;;;;;;;5021600;28;20550;-57
2022/01/15 09:43:38;;;;;;;;;;;;;;;;;;5019831;28;19969;-56
2022/01/15 09:46:04;;;;;;;;;;;;;;;;;;5021997;28;19925;-57
2022/01/15 09:48:30;;;;;;;;;;;;;;;;;;5021827;28;19940;-57
2022/01/15 09:50:55;;;;;;;;;;;;;;;;;;5022486;28;19921;-57
2022/01/15 09:53:21;;;;;;;;;;;;;;;;;;5022228;28;19921;-57
2022/01/15 09:55:46;;;;;;;;;;;;;;;;;;5020413;28;19925;-55
2022/01/15 09:58:12;;;;;;;;;;;;;;;;;;5020051;28;19921;-57
2022/01/15 10:00:37;;;;;;;;;;;;;;;;;;5018528;28;20473;-56
2022/01/15 10:03:02;;;;;;;;;;;;;;;;;;5018845;28;19929;-57
2022/01/15 10:05:28;;;;;;;;;;;;;;;;;;5017896;28;20095;-56
2022/01/15 10:07:53;;;;;;;;;;;;;;;;;;5017836;28;19921;-54
2022/01/15 10:10:20;;;;;;;;;;;;;;;;;;5018148;28;19927;-56
2022/01/15 10:12:45;;;;;;;;;;;;;;;;;;5018546;28;19956;-56
2022/01/15 10:15:11;;;;;;;;;;;;;;;;;;5018074;28;20015;-57
2022/01/15 10:17:36;;;;;;;;;;;;;;;;;;5017969;28;19925;-57
2022/01/15 10:20:02;;;;;;;;;;;;;;;;;;5018819;28;20003;-57
2022/01/15 10:22:27;;;;;;;;;;;;;;;;;;5016886;28;20440;-57
2022/01/15 10:24:53;;;;;;;;;;;;;;;;;;5018527;28;19979;-55
2022/01/15 10:27:18;;;;;;;;;;;;;;;;;;5018894;28;20380;-56
2022/01/15 10:29:43;;;;;;;;;;;;;;;;;;5018767;28;19921;-56
2022/01/15 10:32:09;;;;;;;;;;;;;;;;;;5018395;28;19926;-55
2022/01/15 10:34:36;;;;;;;;;;;;;;;;;;5016559;28;20036;-56
2022/01/15 10:37:01;;;;;;;;;;;;;;;;;;5018652;28;19921;-57
2022/01/15 10:39:27;;;;;;;;;;;;;;;;;;5017648;28;20647;-57
2022/01/15 10:41:52;;;;;;;;;;;;;;;;;;5018756;28;19986;-57
2022/01/15 10:44:18;;;;;;;;;;;;;;;;;;5016955;28;19991;-56
2022/01/15 10:46:43;;;;;;;;;;;;;;;;;;5018227;28;20402;-55
2022/01/15 10:49:08;;;;;;;;;;;;;;;;;;5018529;28;19925;-56
2022/01/15 10:51:34;;;;;;;;;;;;;;;;;;5017612;28;20267;-55
2022/01/15 10:53:59;;;;;;;;;;;;;;;;;;5018557;28;19932;-57
2022/01/15 10:56:24;;;;;;;;;;;;;;;;;;5017334;28;20028;-56
2022/01/15 10:58:50;;;;;;;;;;;;;;;;;;5018325;28;20403;-57
2022/01/15 11:01:15;;;;;;;;;;;;;;;;;;5018346;28;20757;-56
2022/01/15 11:03:41;;;;;;;;;;;;;;;;;;5014136;28;20249;-57
2022/01/15 11:06:06;;;;;;;;;;;;;;;;;;5017933;28;19964;-56
2022/01/15 11:08:31;;;;;;;;;;;;;;;;;;5017710;28;20106;-57
2022/01/15 11:10:57;;;;;;;;;;;;;;;;;;5018625;28;19921;-54
2022/01/15 11:13:22;;;;;;;;;;;;;;;;;;5016376;28;19925;-57
2022/01/15 11:15:48;;;;;;;;;;;;;;;;;;5016921;28;19929;-55
2022/01/15 11:18:13;;;;;;;;;;;;;;;;;;5017247;28;19948;-57
2022/01/15 11:20:38;;;;;;;;;;;;;;;;;;5011736;28;19921;-57
2022/01/15 11:23:04;;;;;;;;;;;;;;;;;;5016843;28;19996;-56
2022/01/15 11:25:29;;;;;;;;;;;;;;;;;;5015796;28;20492;-53
2022/01/15 11:27:55;;;;;;;;;;;;;;;;;;5016820;28;19921;-54
2022/01/15 11:30:20;;;;;;;;;;;;;;;;;;5016109;28;19957;-56
2022/01/15 11:32:45;;;;;;;;;;;;;;;;;;5017960;28;19967;-56
2022/01/15 11:35:11;;;;;;;;;;;;;;;;;;5015832;28;19925;-56
2022/01/15 11:37:36;;;;;;;;;;;;;;;;;;5016117;28;19921;-56
2022/01/15 11:40:02;;;;;;;;;;;;;;;;;;5017679;28;20362;-56
2022/01/15 11:42:27;;;;;;;;;;;;;;;;;;5016296;28;19933;-55
2022/01/15 11:44:52;;;;;;;;;;;;;;;;;;5018610;28;20008;-57
2022/01/15 11:47:20;;;;;;;;;;;;;;;;;;5021622;28;19951;-57
2022/01/15 11:49:45;;;;;;;;;;;;;;;;;;5022029;28;19925;-57
2022/01/15 11:52:12;;;;;;;;;;;;;;;;;;5021962;28;19927;-57
2022/01/15 11:54:37;;;;;;;;;;;;;;;;;;5021641;28;21597;-57
2022/01/15 11:57:02;;;;;;;;;;;;;;;;;;5021985;28;19921;-57
2022/01/15 11:59:28;;;;;;;;;;;;;;;;;;5019624;28;20229;-56
2022/01/15 12:01:53;;;;;;;;;;;;;;;;;;5021727;28;20293;-56
2022/01/15 12:04:19;;;;;;;;;;;;;;;;;;5019256;28;19933;-57
2022/01/15 12:06:44;;;;;;;;;;;;;;;;;;5020997;28;19921;-57
2022/01/15 12:09:10;;;;;;;;;;;;;;;;;;5020712;28;19921;-53
2022/01/15 12:11:35;;;;;;;;;;;;;;;;;;5020121;28;20290;-56
2022/01/15 12:14:00;;;;;;;;;;;;;;;;;;5019618;28;19921;-55
2022/01/15 12:16:36;;;;;;;;;;;;;;;;;;5020293;28;19925;-56
2022/01/15 12:19:01;;;;;;;;;;;;;;;;;;5019390;28;20385;-57
2022/01/15 12:21:27;;;;;;;;;;;;;;;;;;5020232;28;20020;-56
2022/01/15 12:23:52;;;;;;;;;;;;;;;;;;5020456;28;19933;-57
2022/01/15 12:26:17;;;;;;;;;;;;;;;;;;5020241;28;19925;-55
2022/01/15 12:28:43;;;;;;;;;;;;;;;;;;5019028;28;19971;-55
2022/01/15 12:31:08;;;;;;;;;;;;;;;;;;5021622;28;19936;-56
2022/01/15 12:33:35;;;;;;;;;;;;;;;;;;5019023;28;20518;-57
2022/01/15 12:36:01;;;;;;;;;;;;;;;;;;5020706;28;19971;-57
2022/01/15 12:38:28;;;;;;;;;;;;;;;;;;5018452;28;19925;-56
2022/01/15 12:40:53;;;;;;;;;;;;;;;;;;5020488;28;20500;-56
2022/01/15 12:43:19;;;;;;;;;;;;;;;;;;5020194;28;20083;-57
2022/01/15 12:45:44;;;;;;;;;;;;;;;;;;5020399;28;19962;-57
2022/01/15 12:48:09;;;;;;;;;;;;;;;;;;5019408;28;19925;-57
2022/01/15 12:50:35;;;;;;;;;;;;;;;;;;5019235;28;19928;-57
2022/01/15 12:53:00;;;;;;;;;;;;;;;;;;5019396;28;19929;-57
2022/01/15 12:55:26;;;;;;;;;;;;;;;;;;5012315;28;20377;-55
2022/01/15 12:57:52;;;;;;;;;;;;;;;;;;5019828;28;19929;-55
2022/01/15 13:00:17;;;;;;;;;;;;;;;;;;5020854;28;19928;-56
2022/01/15 13:02:43;;;;;;;;;;;;;;;;;;5019210;28;20031;-57
2022/01/15 13:05:08;;;;;;;;;;;;;;;;;;5020621;28;19928;-56
2022/01/15 13:07:34;;;;;;;;;;;;;;;;;;5019818;28;19921;-56
2022/01/15 13:09:59;;;;;;;;;;;;;;;;;;5019173;28;20472;-56
2022/01/15 13:12:24;;;;;;;;;;;;;;;;;;5020514;28;19975;-56
2022/01/15 13:14:50;;;;;;;;;;;;;;;;;;5020774;28;19956;-55
2022/01/15 13:17:16;;;;;;;;;;;;;;;;;;5019916;28;19979;-56
2022/01/15 13:19:41;;;;;;;;;;;;;;;;;;5018296;28;20349;-57
2022/01/15 13:22:07;;;;;;;;;;;;;;;;;;5021361;28;19921;-56
2022/01/15 13:24:32;;;;;;;;;;;;;;;;;;5019840;28;20910;-56
2022/01/15 13:26:59;;;;;;;;;;;;;;;;;;5020384;28;19973;-57
2022/01/15 13:29:25;;;;;;;;;;;;;;;;;;5018742;28;19952;-58
2022/01/15 13:31:50;;;;;;;;;;;;;;;;;;5019728;28;19971;-57
2022/01/15 13:34:16;;;;;;;;;;;;;;;;;;5019300;28;19921;-57
2022/01/15 13:36:42;;;;;;;;;;;;;;;;;;5017794;28;20646;-57
2022/01/15 13:39:07;;;;;;;;;;;;;;;;;;5019293;28;20404;-56
2022/01/15 13:41:32;;;;;;;;;;;;;;;;;;5018783;28;21715;-56
2022/01/15 13:43:58;;;;;;;;;;;;;;;;;;5019893;28;19929;-56
2022/01/15 13:46:23;;;;;;;;;;;;;;;;;;5019061;28;20088;-57
2022/01/15 13:48:54;;;;;;;;;;;;;;;;;;5018801;28;19964;-57
2022/01/15 13:54:03;;;;;;;;;;;;;;;;;;5019349;28;19986;-55
2022/01/15 13:56:30;;;;;;;;;;;;;;;;;;5018596;28;19925;-55
2022/01/15 13:58:55;;;;;;;;;;;;;;;;;;5019046;28;20003;-56
2022/01/15 14:01:20;;;;;;;;;;;;;;;;;;5018569;28;20023;-57
2022/01/15 14:03:46;;;;;;;;;;;;;;;;;;5019479;28;19971;-57
2022/01/15 14:06:11;;;;;;;;;;;;;;;;;;5017735;28;19956;-55
2022/01/15 14:08:37;;;;;;;;;;;;;;;;;;5018063;28;19925;-57
2022/01/15 14:11:02;;;;;;;;;;;;;;;;;;5019881;28;20378;-57
2022/01/15 14:13:27;;;;;;;;;;;;;;;;;;5018310;28;19931;-56
2022/01/15 14:15:53;;;;;;;;;;;;;;;;;;5017844;28;19925;-56
2022/01/15 14:18:25;;;;;;;;;;;;;;;;;;5017865;28;19921;-55
2022/01/15 14:23:15;;;;;;;;;;;;;;;;;;5018144;28;19928;-56
2022/01/15 14:25:44;;;;;;;;;;;;;;;;;;5017693;28;19929;-57
2022/01/15 14:28:09;;;;;;;;;;;;;;;;;;5018500;28;19925;-57
2022/01/15 14:30:35;;;;;;;;;;;;;;;;;;5017981;28;19971;-56
2022/01/15 14:33:00;;;;;;;;;;;;;;;;;;5019592;28;19917;-54
2022/01/15 14:35:26;;;;;;;;;;;;;;;;;;5018071;28;20495;-57
2022/01/15 14:37:51;;;;;;;;;;;;;;;;;;5018262;28;19925;-55
2022/01/15 14:40:17;;;;;;;;;;;;;;;;;;5019836;28;19921;-56
2022/01/15 14:42:42;;;;;;;;;;;;;;;;;;5019530;28;19947;-57
2022/01/15 14:45:08;;;;;;;;;;;;;;;;;;5020280;28;19925;-57
2022/01/15 14:47:33;;;;;;;;;;;;;;;;;;5018700;28;20418;-56
2022/01/15 14:49:58;;;;;;;;;;;;;;;;;;5018868;28;20258;-57
2022/01/15 14:52:24;;;;;;;;;;;;;;;;;;5019183;28;19932;-56
2022/01/15 14:54:49;;;;;;;;;;;;;;;;;;5020837;28;19921;-56
2022/01/15 14:57:15;;;;;;;;;;;;;;;;;;5019055;28;21655;-56
2022/01/15 14:59:40;;;;;;;;;;;;;;;;;;5017876;28;19932;-58
2022/01/15 15:02:06;;;;;;;;;;;;;;;;;;5026358;28;19921;-56
2022/01/15 15:04:31;;;;;;;;;;;;;;;;;;5018790;28;19933;-57
2022/01/15 15:06:56;;;;;;;;;;;;;;;;;;5017708;28;19929;-57
2022/01/15 15:09:22;;;;;;;;;;;;;;;;;;5017238;28;19975;-54
2022/01/15 15:11:47;;;;;;;;;;;;;;;;;;5019287;28;19925;-56
2022/01/15 15:14:13;;;;;;;;;;;;;;;;;;5018939;28;19928;-57
2022/01/15 15:16:38;;;;;;;;;;;;;;;;;;5018931;28;19952;-56
2022/01/15 15:19:03;;;;;;;;;;;;;;;;;;5018820;28;20023;-56
2022/01/15 15:21:29;;;;;;;;;;;;;;;;;;5017825;28;20420;-55
2022/01/15 15:23:56;;;;;;;;;;;;;;;;;;5018839;28;20433;-57
2022/01/15 15:26:21;;;;;;;;;;;;;;;;;;5018498;28;19992;-57
2022/01/15 15:28:49;;;;;;;;;;;;;;;;;;5017028;28;19918;-57
2022/01/15 15:31:14;;;;;;;;;;;;;;;;;;5019210;28;19925;-58
2022/01/15 15:33:45;;;;;;;;;;;;;;;;;;5018306;28;19971;-56
2022/01/15 15:36:10;;;;;;;;;;;;;;;;;;5018491;28;20000;-57
2022/01/15 15:38:38;;;;;;;;;;;;;;;;;;5016699;28;19925;-56
2022/01/15 15:41:04;;;;;;;;;;;;;;;;;;5018778;28;19925;-57
2022/01/15 15:43:29;;;;;;;;;;;;;;;;;;5017689;28;20083;-57
2022/01/15 15:45:55;;;;;;;;;;;;;;;;;;5019283;28;20284;-58
2022/01/15 15:48:20;;;;;;;;;;;;;;;;;;5017830;28;20555;-58
2022/01/15 15:50:45;;;;;;;;;;;;;;;;;;5017753;28;20492;-58
2022/01/15 15:53:11;;;;;;;;;;;;;;;;;;5018309;28;19917;-57
2022/01/15 15:55:36;;;;;;;;;;;;;;;;;;5018985;28;20723;-57
2022/01/15 15:58:02;;;;;;;;;;;;;;;;;;5016783;28;19917;-59
2022/01/15 16:00:27;;;;;;;;;;;;;;;;;;5019795;28;19921;-57
2022/01/15 16:02:52;;;;;;;;;;;;;;;;;;5016716;28;19933;-57
2022/01/15 16:05:18;;;;;;;;;;;;;;;;;;5017805;28;19952;-57
2022/01/15 16:07:43;;;;;;;;;;;;;;;;;;5017675;28;20422;-54
2022/01/15 16:10:09;;;;;;;;;;;;;;;;;;5018038;28;20408;-58
2022/01/15 16:12:34;;;;;;;;;;;;;;;;;;5017828;28;19928;-56
2022/01/15 16:14:59;;;;;;;;;;;;;;;;;;5018627;28;20012;-56
2022/01/15 16:17:27;;;;;;;;;;;;;;;;;;4992577;28;19918;-57
2022/01/15 16:19:53;;;;;;;;;;;;;;;;;;5011510;28;20519;-58
2022/01/15 16:22:18;;;;;;;;;;;;;;;;;;5018168;28;20020;-54
2022/01/15 16:24:45;;;;;;;;;;;;;;;;;;5017869;28;20019;-55
2022/01/15 16:27:10;;;;;;;;;;;;;;;;;;5016660;28;20011;-57
2022/01/15 16:29:36;;;;;;;;;;;;;;;;;;5024455;28;20024;-55
2022/01/15 16:32:01;;;;;;;;;;;;;;;;;;5019936;28;19921;-57
2022/01/15 16:34:26;;;;;;;;;;;;;;;;;;5022055;28;19932;-58
2022/01/15 16:36:54;;;;;;;;;;;;;;;;;;5029201;28;19921;-58
2022/01/15 16:39:19;;;;;;;;;;;;;;;;;;5021529;28;19921;-57
2022/01/15 16:41:45;;;;;;;;;;;;;;;;;;5022676;28;19925;-58
2022/01/15 16:44:10;;;;;;;;;;;;;;;;;;5022286;28;19929;-57
2022/01/15 16:46:36;;;;;;;;;;;;;;;;;;5021578;28;19925;-57
2022/01/15 16:49:01;;;;;;;;;;;;;;;;;;5017314;28;19925;-57
2022/01/15 16:51:26;;;;;;;;;;;;;;;;;;5018723;28;19925;-58
2022/01/15 16:53:52;;;;;;;;;;;;;;;;;;5020184;28;19996;-54
2022/01/15 16:56:17;;;;;;;;;;;;;;;;;;5020338;28;19932;-57
2022/01/15 16:58:43;;;;;;;;;;;;;;;;;;5020789;28;19925;-58
2022/01/15 17:01:09;;;;;;;;;;;;;;;;;;5021204;28;19974;-58
2022/01/15 17:03:34;;;;;;;;;;;;;;;;;;5020447;28;20061;-57
2022/01/15 17:05:59;;;;;;;;;;;;;;;;;;5021789;28;19921;-55
2022/01/15 17:08:25;;;;;;;;;;;;;;;;;;5020283;28;19921;-58
2022/01/15 17:10:50;;;;;;;;;;;;;;;;;;5021799;28;19953;-58